Time;durP1;ratioP1;P1;durP2;ratioP2;P2;SDS_P1;SDS_P2;PMS_P1;PMS_P2;Temp;Humidity;BMP_temperature;BMP_pressure;BME280_temperature;BME280_humidity;BME280_pressure;Samples;Min_cycle;Max_cycle;Signal;HPM_P1;HPM_P2
2023/05/07 10:20:24;;;;;;;4.03;2.85;;;35.10;61.20;;;;;;5113872;27;20318;-67
2023/05/07 10:22:52;;;;;;;3.28;1.92;;;34.60;60.40;;;;;;5098477;28;20031;-71
2023/05/07 10:25:22;;;;;;;4.82;2.00;;;32.50;63.10;;;;;;5110857;28;20077;-69
2023/05/07 10:27:49;;;;;;;3.72;1.92;;;33.70;62.40;;;;;;5112017;28;20088;-69
2023/05/07 10:30:34;;;;;;;4.85;2.13;;;33.50;62.40;;;;;;5111323;28;20028;-68
2023/05/07 10:33:05;;;;;;;4.60;1.80;;;33.30;62.90;;;;;;5110057;28;20031;-68
2023/05/07 10:35:35;;;;;;;4.93;2.05;;;33.30;62.40;;;;;;5109339;28;20051;-69
2023/05/07 10:38:02;;;;;;;3.47;2.50;;;32.90;62.70;;;;;;5109565;28;20024;-69
2023/05/07 10:40:28;;;;;;;3.03;1.90;;;33.90;61.90;;;;;;5109600;28;20387;-72
2023/05/07 10:42:59;;;;;;;2.65;2.20;;;34.50;61.20;;;;;;5109656;28;20016;-70
2023/05/07 10:45:25;;;;;;;3.63;2.60;;;34.90;60.80;;;;;;5110624;28;20016;-70
2023/05/07 10:48:13;;;;;;;3.67;1.90;;;35.40;59.30;;;;;;5109182;28;20114;-71
2023/05/07 10:50:43;;;;;;;2.70;1.90;;;34.90;60.60;;;;;;5073197;28;20031;-73
2023/05/07 10:53:17;;;;;;;2.75;1.80;;;35.50;60.50;;;;;;5070798;28;20124;-70
2023/05/07 10:55:48;;;;;;;4.22;1.83;;;36.30;59.00;;;;;;5068587;28;20013;-67
2023/05/07 10:58:29;;;;;;;7.05;2.28;;;36.60;59.30;;;;;;5068315;28;20478;-68
2023/05/07 11:00:59;;;;;;;3.15;2.10;;;37.30;58.10;;;;;;5069667;28;20031;-69
2023/05/07 11:03:26;;;;;;;2.75;1.70;;;36.80;57.60;;;;;;5069697;28;20029;-69
2023/05/07 11:06:25;;;;;;;3.03;1.55;;;36.10;57.70;;;;;;5069384;28;20060;-68
2023/05/07 11:08:57;;;;;;;3.58;1.75;;;34.30;59.70;;;;;;5030923;28;20445;-69
2023/05/07 11:11:47;;;;;;;3.00;2.00;;;33.00;61.10;;;;;;5047664;28;20125;-69
2023/05/07 11:14:14;;;;;;;3.58;2.63;;;30.90;62.60;;;;;;5047389;28;20038;-69
2023/05/07 11:16:42;;;;;;;4.35;2.33;;;29.40;65.20;;;;;;5047414;28;20025;-69
2023/05/07 11:19:08;;;;;;;4.10;2.13;;;28.30;67.80;;;;;;5049137;28;20052;-69
2023/05/07 11:21:41;;;;;;;4.38;2.20;;;28.10;69.10;;;;;;5047636;28;20018;-70
2023/05/07 11:24:09;;;;;;;3.13;2.15;;;27.80;69.20;;;;;;5051647;28;20029;-68
2023/05/07 11:26:46;;;;;;;4.57;2.13;;;27.50;69.50;;;;;;5039452;28;20021;-67
2023/05/07 11:29:13;;;;;;;2.78;2.15;;;27.30;69.90;;;;;;5052189;28;20033;-68
2023/05/07 11:31:39;;;;;;;2.75;2.10;;;26.90;70.10;;;;;;5038710;28;20038;-69
2023/05/07 11:34:06;;;;;;;4.35;2.50;;;26.80;70.70;;;;;;5020132;28;20036;-69
2023/05/07 11:36:33;;;;;;;4.25;2.00;;;26.80;70.80;;;;;;5037403;28;20068;-69
2023/05/07 11:38:58;;;;;;;4.18;2.20;;;26.50;72.30;;;;;;5021230;28;20056;-68
2023/05/07 11:41:35;;;;;;;2.85;2.17;;;26.60;71.50;;;;;;5023625;28;20025;-68
2023/05/07 11:44:01;;;;;;;4.20;2.00;;;26.60;72.20;;;;;;5048970;28;20059;-68
2023/05/07 11:46:27;;;;;;;;;;;26.20;72.80;;;;;;5061929;28;20033;-68
2023/05/07 11:48:53;;;;;;;2.90;2.15;;;26.00;73.10;;;;;;5059289;28;19991;-69
2023/05/07 11:51:18;;;;;;;;;;;26.10;73.40;;;;;;5078347;28;20098;-67
2023/05/07 11:53:48;;;;;;;7.85;3.40;;;25.80;73.40;;;;;;5078847;28;19904;-67
2023/05/07 11:56:16;;;;;;;31.67;8.77;;;25.60;73.90;;;;;;5075038;28;20032;-67
2023/05/07 11:58:43;;;;;;;43.03;11.07;;;25.80;75.50;;;;;;5075916;28;20024;-68
2023/05/07 12:01:10;;;;;;;5.55;2.42;;;26.00;75.20;;;;;;5074941;28;20052;-68
2023/05/07 12:03:39;;;;;;;12.73;4.45;;;26.40;74.30;;;;;;5076278;28;20035;-68
2023/05/07 12:06:08;;;;;;;4.63;2.10;;;26.50;74.30;;;;;;5074034;28;20027;-68
2023/05/07 12:08:37;;;;;;;7.80;2.47;;;26.50;73.60;;;;;;5075644;28;20472;-69
2023/05/07 12:11:06;;;;;;;5.57;2.63;;;26.30;74.00;;;;;;5075893;28;20468;-69
2023/05/07 12:13:32;;;;;;;5.38;3.20;;;26.10;74.30;;;;;;5075664;28;20020;-69
2023/05/07 12:15:57;;;;;;;;;;;26.00;75.70;;;;;;5077319;28;20032;-67
2023/05/07 12:18:26;;;;;;;4.15;2.70;;;26.10;75.70;;;;;;5082734;28;19920;-66
2023/05/07 12:20:52;;;;;;;2.83;1.90;;;26.30;75.20;;;;;;5064273;28;20033;-66
2023/05/07 12:23:18;;;;;;;;;;;26.70;74.70;;;;;;5065274;28;20114;-68
2023/05/07 12:25:46;;;;;;;4.22;1.90;;;26.80;74.10;;;;;;5063122;28;19911;-66
2023/05/07 12:28:19;;;;;;;4.32;2.15;;;26.90;74.60;;;;;;5064752;28;20088;-66
2023/05/07 12:30:50;;;;;;;3.42;2.17;;;27.10;74.60;;;;;;5065754;28;20459;-66
2023/05/07 12:33:24;;;;;;;3.10;2.35;;;27.10;73.90;;;;;;5057420;28;20116;-72
2023/05/07 12:35:50;;;;;;;5.63;3.28;;;27.00;74.50;;;;;;5054087;28;20039;-73
2023/05/07 12:38:17;;;;;;;3.88;2.20;;;27.00;75.00;;;;;;5053695;28;20044;-73
2023/05/07 12:40:50;;;;;;;4.28;2.30;;;27.00;74.90;;;;;;5055150;28;20096;-72
2023/05/07 12:43:34;;;;;;;5.00;2.55;;;27.00;75.20;;;;;;5069278;28;20116;-72
2023/05/07 12:46:04;;;;;;;5.40;2.85;;;26.50;75.80;;;;;;5054933;28;20021;-72
2023/05/07 12:48:29;;;;;;;4.63;3.10;;;26.20;77.10;;;;;;5054478;28;20037;-72
2023/05/07 12:50:56;;;;;;;;;;;25.90;77.60;;;;;;5053592;28;20115;-72
2023/05/07 12:53:24;;;;;;;2.80;2.30;;;26.00;77.30;;;;;;5054620;28;19911;-72
2023/05/07 12:55:51;;;;;;;5.93;2.38;;;26.00;77.90;;;;;;5053211;28;20025;-72
2023/05/07 12:58:19;;;;;;;5.15;2.35;;;26.10;77.90;;;;;;5053004;28;20081;-72
2023/05/07 13:00:48;;;;;;;3.60;2.10;;;26.10;77.70;;;;;;5053004;28;20106;-72
2023/05/07 13:03:21;;;;;;;2.97;2.10;;;26.20;77.70;;;;;;5052991;28;20018;-71
2023/05/07 13:05:58;;;;;;;4.03;1.92;;;26.10;76.90;;;;;;5052794;28;20017;-72
2023/05/07 13:08:34;;;;;;;5.00;2.15;;;26.20;76.50;;;;;;5073104;28;20493;-73
2023/05/07 13:11:03;;;;;;;2.53;1.90;;;26.00;76.70;;;;;;5073943;28;20024;-71
2023/05/07 13:13:30;;;;;;;2.70;2.05;;;26.00;77.40;;;;;;5074025;28;20070;-71
2023/05/07 13:15:55;;;;;;;4.43;2.22;;;26.10;77.70;;;;;;5072608;28;20124;-72
2023/05/07 13:18:21;;;;;;;;;;;26.00;77.30;;;;;;5074270;28;20107;-73
2023/05/07 13:20:46;;;;;;;4.43;2.63;;;25.80;77.80;;;;;;5072699;28;19904;-72
2023/05/07 13:23:12;;;;;;;5.63;3.28;;;25.90;78.70;;;;;;5073470;28;20051;-72
2023/05/07 13:25:37;;;;;;;;;;;25.90;78.80;;;;;;5074052;28;20096;-72
2023/05/07 13:28:04;;;;;;;3.20;2.50;;;25.70;79.50;;;;;;5074020;28;19904;-70
2023/05/07 13:30:29;;;;;;;6.45;3.25;;;25.90;80.00;;;;;;5073846;28;20100;-71
2023/05/07 13:32:55;;;;;;;;;;;25.80;78.60;;;;;;5072679;28;20052;-70
2023/05/07 13:35:21;;;;;;;6.45;2.58;;;25.60;78.90;;;;;;5073319;28;20313;-70
2023/05/07 13:37:48;;;;;;;3.92;2.30;;;25.50;79.10;;;;;;5072144;28;20031;-70
2023/05/07 13:40:13;;;;;;;3.75;2.45;;;25.40;79.20;;;;;;5072154;28;20024;-70
2023/05/07 13:42:39;;;;;;;;;;;25.30;79.20;;;;;;5073818;28;20023;-70
2023/05/07 13:45:05;;;;;;;3.25;2.10;;;25.20;79.50;;;;;;5073642;28;20006;-70
2023/05/07 13:47:30;;;;;;;;;;;25.30;79.60;;;;;;5072734;28;20388;-69
2023/05/07 13:49:56;;;;;;;4.22;3.10;;;25.40;79.60;;;;;;5073105;28;19905;-69
2023/05/07 13:52:21;;;;;;;;;;;25.50;78.40;;;;;;5072483;28;20575;-69
2023/05/07 13:54:47;;;;;;;4.10;2.28;;;25.60;78.70;;;;;;5073024;28;19981;-70
2023/05/07 13:57:12;;;;;;;;;;;25.50;77.00;;;;;;5072339;28;20029;-70
2023/05/07 13:59:38;;;;;;;3.85;2.30;;;25.30;76.70;;;;;;5072567;28;19912;-70
2023/05/07 14:02:03;;;;;;;;;;;25.30;77.20;;;;;;5073070;28;20111;-69
2023/05/07 14:04:30;;;;;;;2.53;1.83;;;25.10;77.60;;;;;;5055308;28;20284;-69
2023/05/07 14:06:55;;;;;;;4.38;2.50;;;24.90;78.30;;;;;;5051856;28;20115;-72
2023/05/07 14:09:21;;;;;;;;;;;24.80;77.90;;;;;;5052107;28;20059;-74
2023/05/07 14:11:50;;;;;;;4.53;2.55;;;24.60;78.60;;;;;;5051809;28;19905;-72
2023/05/07 14:14:18;;;;;;;5.18;3.35;;;24.60;80.00;;;;;;5051679;28;20025;-73
2023/05/07 14:16:50;;;;;;;6.07;3.60;;;24.40;82.50;;;;;;5057434;28;20020;-72
2023/05/07 14:19:16;;;;;;;7.18;3.55;;;24.40;84.40;;;;;;5072181;28;20037;-71
2023/05/07 14:21:41;;;;;;;5.22;3.72;;;24.20;85.30;;;;;;5071978;28;20161;-76
2023/05/07 14:24:08;;;;;;;;;;;24.20;85.40;;;;;;5072383;28;20025;-74
2023/05/07 14:26:34;;;;;;;5.22;3.88;;;24.20;85.30;;;;;;5070656;28;19991;-71
2023/05/07 14:28:59;;;;;;;5.78;3.78;;;24.10;85.80;;;;;;5070491;28;20553;-72
2023/05/07 14:31:25;;;;;;;5.47;3.67;;;24.20;86.00;;;;;;5070272;28;20035;-71
2023/05/07 14:33:51;;;;;;;5.70;3.65;;;24.00;85.80;;;;;;5071904;28;20522;-73
2023/05/07 14:36:19;;;;;;;5.97;3.20;;;24.00;86.10;;;;;;5070328;28;20093;-70
2023/05/07 14:38:45;;;;;;;5.20;2.70;;;24.00;86.30;;;;;;5071704;28;20058;-71
2023/05/07 14:41:11;;;;;;;;;;;23.80;84.50;;;;;;5072191;28;20025;-73
2023/05/07 14:43:36;;;;;;;4.85;1.50;;;23.90;83.30;;;;;;5073084;28;19911;-72
2023/05/07 14:46:02;;;;;;;;;;;24.00;81.10;;;;;;5073754;28;20388;-72
2023/05/07 14:48:27;;;;;;;4.00;1.40;;;24.00;79.80;;;;;;5071021;28;20376;-71
2023/05/07 14:50:53;;;;;;;5.57;2.00;;;24.00;79.90;;;;;;5072774;28;20365;-71
2023/05/07 14:53:18;;;;;;;2.63;1.77;;;24.10;78.60;;;;;;5072861;28;20036;-72
2023/05/07 14:55:44;;;;;;;;;;;24.20;77.80;;;;;;5073389;28;20025;-72
2023/05/07 14:58:11;;;;;;;2.25;1.55;;;24.20;79.80;;;;;;5072838;28;19954;-74
2023/05/07 15:00:36;;;;;;;56.50;6.53;;;24.10;80.50;;;;;;5067894;28;20025;-75
2023/05/07 15:03:07;;;;;;;1.85;1.27;;;23.70;81.00;;;;;;5051488;28;20500;-74
2023/05/07 15:05:33;;;;;;;2.80;1.42;;;23.50;84.50;;;;;;5055436;28;20025;-73
2023/05/07 15:07:59;;;;;;;3.35;1.70;;;23.40;83.20;;;;;;5075330;28;20031;-69
2023/05/07 15:10:25;;;;;;;;;;;23.50;82.60;;;;;;5076818;28;20036;-73
2023/05/07 15:12:50;;;;;;;1.92;1.58;;;23.50;81.70;;;;;;5075452;28;20427;-74
2023/05/07 15:15:16;;;;;;;2.67;1.33;;;23.50;82.30;;;;;;5075207;28;20477;-76
2023/05/07 15:17:41;;;;;;;7.07;1.40;;;23.60;82.30;;;;;;5076285;28;20112;-75
2023/05/07 15:20:07;;;;;;;2.67;1.52;;;23.60;82.30;;;;;;5061827;28;20124;-74
2023/05/07 15:22:33;;;;;;;3.08;1.75;;;23.60;82.90;;;;;;5054880;28;20029;-75
2023/05/07 15:24:59;;;;;;;2.50;1.60;;;23.60;83.50;;;;;;5055046;28;20021;-73
2023/05/07 15:27:25;;;;;;;3.25;1.45;;;23.70;83.60;;;;;;5062220;28;20430;-74
2023/05/07 15:29:51;;;;;;;5.10;1.80;;;23.60;84.10;;;;;;5077247;28;20032;-75
2023/05/07 15:32:16;;;;;;;2.13;1.50;;;23.60;84.50;;;;;;5074916;28;20024;-74
2023/05/07 15:34:42;;;;;;;3.05;1.65;;;23.80;84.70;;;;;;5074133;28;20069;-70
2023/05/07 15:37:07;;;;;;;;;;;23.80;83.80;;;;;;5076178;28;20111;-70
2023/05/07 15:39:33;;;;;;;2.88;1.60;;;23.80;84.50;;;;;;5075692;28;19912;-71
2023/05/07 15:41:58;;;;;;;3.95;2.00;;;23.70;84.80;;;;;;5075511;28;20029;-70
2023/05/07 15:44:27;;;;;;;;;;;23.70;86.60;;;;;;5076296;28;20507;-70
2023/05/07 15:46:53;;;;;;;3.75;1.98;;;23.50;88.80;;;;;;5074497;28;19940;-70
2023/05/07 15:49:18;;;;;;;2.78;1.70;;;23.50;89.80;;;;;;5068565;28;20056;-70
2023/05/07 15:51:44;;;;;;;;;;;23.50;90.30;;;;;;5055891;28;20029;-71
2023/05/07 15:54:09;;;;;;;5.45;2.40;;;23.20;90.90;;;;;;5055533;28;19905;-70
2023/05/07 15:56:35;;;;;;;;;;;23.20;91.00;;;;;;5054498;28;20029;-70
2023/05/07 15:59:01;;;;;;;3.63;2.05;;;23.10;91.10;;;;;;5055177;28;19912;-69
2023/05/07 16:01:27;;;;;;;;;;;23.10;91.20;;;;;;5056158;28;20053;-69
2023/05/07 16:03:52;;;;;;;5.13;2.45;;;23.10;91.00;;;;;;5073011;28;20257;-70
2023/05/07 16:06:18;;;;;;;;;;;23.00;90.70;;;;;;5071001;28;20056;-70
2023/05/07 16:08:43;;;;;;;3.78;2.20;;;22.90;90.80;;;;;;5057412;28;19909;-70
2023/05/07 16:11:09;;;;;;;5.60;4.65;;;22.90;90.60;;;;;;5057405;28;20021;-70
2023/05/07 16:13:35;;;;;;;2.58;1.95;;;22.90;90.50;;;;;;5071475;28;20036;-71
2023/05/07 16:16:01;;;;;;;;;;;22.80;90.70;;;;;;5057463;28;20104;-70
2023/05/07 16:18:27;;;;;;;4.90;1.80;;;22.60;92.00;;;;;;5053791;28;20032;-68
2023/05/07 16:20:53;;;;;;;6.05;1.50;;;22.40;92.90;;;;;;5055450;28;20381;-68
2023/05/07 16:23:19;;;;;;;4.55;1.95;;;22.30;93.40;;;;;;5077244;22;20029;-73
2023/05/07 16:25:44;;;;;;;5.93;1.83;;;22.10;93.60;;;;;;5076155;28;20052;-72
2023/05/07 16:28:10;;;;;;;3.53;1.80;;;21.90;94.20;;;;;;5074433;28;20031;-71
2023/05/07 16:30:35;;;;;;;4.97;1.83;;;21.90;94.60;;;;;;5074141;28;20016;-71
2023/05/07 16:33:01;;;;;;;2.00;1.30;;;21.70;94.70;;;;;;5074246;28;20048;-72
2023/05/07 16:35:27;;;;;;;6.93;1.35;;;21.60;95.10;;;;;;5094769;28;20028;-73
2023/05/07 16:37:52;;;;;;;5.68;2.33;;;21.40;95.60;;;;;;5095975;28;20035;-71
2023/05/07 16:40:18;;;;;;;2.75;1.88;;;21.40;95.80;;;;;;5096649;28;20032;-69
2023/05/07 16:42:44;;;;;;;4.80;2.50;;;21.30;96.60;;;;;;5102355;28;20027;-71
2023/05/07 16:45:10;;;;;;;3.58;1.95;;;21.20;96.80;;;;;;5105363;28;20027;-71
2023/05/07 16:47:36;;;;;;;5.90;2.25;;;21.00;97.30;;;;;;5105140;28;20028;-69
2023/05/07 16:50:04;;;;;;;2.35;1.90;;;20.90;98.00;;;;;;5105408;28;20046;-70
2023/05/07 16:52:30;;;;;;;3.17;1.75;;;20.70;99.00;;;;;;5103955;28;20026;-70
2023/05/07 16:54:59;;;;;;;6.65;2.03;;;20.50;99.90;;;;;;5098874;28;20119;-69
2023/05/07 16:57:28;;;;;;;4.07;1.70;;;20.30;99.90;;;;;;5105272;28;20046;-70
2023/05/07 16:59:55;;;;;;;2.95;2.15;;;20.20;99.90;;;;;;5109380;28;20566;-69
2023/05/07 17:02:20;;;;;;;6.43;2.13;;;20.20;99.90;;;;;;5105975;28;20020;-70
2023/05/07 17:04:46;;;;;;;2.83;1.88;;;20.20;99.90;;;;;;5081166;28;20034;-73
2023/05/07 17:07:13;;;;;;;3.33;2.00;;;20.20;99.90;;;;;;5095214;28;20028;-72
2023/05/07 17:09:39;;;;;;;3.88;2.08;;;20.30;99.90;;;;;;5078952;28;20408;-69
2023/05/07 17:12:05;;;;;;;4.43;2.30;;;20.30;99.90;;;;;;5075203;28;20021;-72
2023/05/07 17:14:30;;;;;;;4.30;2.53;;;20.20;99.90;;;;;;5071870;28;20147;-72
2023/05/07 17:16:56;;;;;;;2.58;1.52;;;20.10;99.90;;;;;;5085147;28;20495;-72
2023/05/07 17:19:22;;;;;;;4.00;1.40;;;20.00;99.90;;;;;;5065978;28;20033;-72
2023/05/07 17:21:47;;;;;;;3.83;1.88;;;19.90;99.90;;;;;;5053204;28;20116;-72
2023/05/07 17:24:13;;;;;;;3.65;1.67;;;19.90;99.90;;;;;;5069705;28;20032;-71
2023/05/07 17:26:41;;;;;;;3.72;1.42;;;19.90;99.90;;;;;;5095456;28;20077;-72
2023/05/07 17:29:07;;;;;;;3.25;1.38;;;19.90;99.90;;;;;;5067029;28;20037;-72
2023/05/07 17:31:33;;;;;;;3.28;1.85;;;19.70;99.90;;;;;;5073918;28;20408;-73
2023/05/07 17:33:58;;;;;;;3.75;2.10;;;19.60;99.90;;;;;;5076402;28;20101;-70
2023/05/07 17:36:24;;;;;;;4.22;2.00;;;19.50;99.90;;;;;;5078398;28;20104;-70
2023/05/07 17:38:49;;;;;;;3.38;1.95;;;19.30;99.90;;;;;;5076380;28;20520;-68
2023/05/07 17:41:15;;;;;;;4.07;2.10;;;19.30;99.90;;;;;;5073833;28;20017;-67
2023/05/07 17:43:41;;;;;;;3.75;1.90;;;19.20;99.90;;;;;;5073696;28;20032;-70
2023/05/07 17:46:07;;;;;;;5.95;2.40;;;19.10;99.90;;;;;;5072866;28;20491;-70
2023/05/07 17:48:33;;;;;;;4.90;2.60;;;19.00;99.90;;;;;;5074842;28;20033;-71
2023/05/07 17:51:02;;;;;;;3.33;2.05;;;18.90;99.90;;;;;;5073530;28;20103;-71
2023/05/07 17:53:28;;;;;;;4.88;1.98;;;18.70;99.90;;;;;;5073246;28;20032;-70
2023/05/07 17:55:54;;;;;;;5.82;2.35;;;18.50;99.90;;;;;;5076367;28;20029;-71
2023/05/07 17:58:21;;;;;;;9.18;3.13;;;18.20;99.90;;;;;;5072434;28;20031;-73
2023/05/07 18:00:47;;;;;;;5.60;2.22;;;17.80;99.90;;;;;;5072825;28;20028;-75
2023/05/07 18:03:13;;;;;;;4.93;2.67;;;17.40;99.90;;;;;;5073866;28;20028;-74
2023/05/07 18:05:38;;;;;;;9.60;3.60;;;17.00;99.90;;;;;;5072864;28;20024;-75
2023/05/07 18:08:06;;;;;;;8.57;4.47;;;16.70;99.90;;;;;;5072607;28;20024;-74
2023/05/07 18:10:31;;;;;;;11.18;5.05;;;16.60;99.90;;;;;;5073670;28;20032;-75
2023/05/07 18:12:57;;;;;;;11.30;4.68;;;16.50;99.90;;;;;;5073710;28;20107;-75
2023/05/07 18:15:23;;;;;;;9.30;4.97;;;16.60;99.90;;;;;;5073645;28;20033;-76
2023/05/07 18:17:48;;;;;;;10.02;4.45;;;16.60;99.90;;;;;;5072803;28;20029;-76
2023/05/07 18:20:14;;;;;;;7.32;4.40;;;16.70;99.90;;;;;;5072966;28;20033;-76
2023/05/07 18:22:40;;;;;;;9.77;5.22;;;16.70;99.90;;;;;;5075372;28;20491;-77
2023/05/07 18:25:06;;;;;;;7.32;4.40;;;16.70;99.90;;;;;;5090335;28;20024;-76
2023/05/07 18:27:32;;;;;;;6.93;4.15;;;16.80;99.90;;;;;;5093812;28;20109;-77
2023/05/07 18:29:58;;;;;;;7.83;5.20;;;16.80;99.90;;;;;;5074363;28;20059;-76
2023/05/07 18:32:24;;;;;;;8.10;4.95;;;16.80;99.90;;;;;;5075366;28;20333;-77
2023/05/07 18:34:49;;;;;;;12.55;6.18;;;16.80;99.90;;;;;;5074323;28;20025;-78
2023/05/07 18:37:15;;;;;;;7.15;5.13;;;16.70;99.90;;;;;;5073850;28;20089;-78
2023/05/07 18:39:44;;;;;;;8.52;5.57;;;16.90;99.90;;;;;;5074886;28;20028;-78
2023/05/07 18:42:11;;;;;;;11.05;6.40;;;17.00;99.90;;;;;;5077802;28;20031;-79
2023/05/07 18:44:37;;;;;;;9.00;5.80;;;16.90;99.90;;;;;;5076329;28;20031;-77
2023/05/07 18:47:05;;;;;;;9.07;5.50;;;16.90;99.90;;;;;;5087965;28;20080;-78
2023/05/07 18:49:34;;;;;;;11.55;5.97;;;16.80;99.90;;;;;;5084968;28;20039;-78
2023/05/07 18:52:00;;;;;;;7.88;5.38;;;16.80;99.90;;;;;;5090040;28;20031;-77
2023/05/07 18:54:26;;;;;;;10.02;5.80;;;16.90;99.90;;;;;;5090302;28;20024;-77
2023/05/07 18:56:51;;;;;;;8.60;5.55;;;16.90;99.90;;;;;;5099864;28;20038;-77
2023/05/07 18:59:17;;;;;;;9.90;6.22;;;16.80;99.90;;;;;;5099057;28;20024;-78
2023/05/07 19:01:42;;;;;;;10.40;6.75;;;16.70;99.90;;;;;;5099391;28;20035;-73
2023/05/07 19:04:09;;;;;;;8.63;6.83;;;16.60;99.90;;;;;;5092264;28;20086;-72
2023/05/07 19:06:34;;;;;;;11.90;7.45;;;16.70;99.90;;;;;;5076232;28;20274;-75
2023/05/07 19:09:00;;;;;;;7.50;4.97;;;16.80;99.90;;;;;;5075694;28;20028;-72
2023/05/07 19:11:25;;;;;;;9.95;5.53;;;16.80;99.90;;;;;;5076104;28;20267;-72
2023/05/07 19:13:51;;;;;;;6.93;5.53;;;16.80;99.90;;;;;;5075416;28;20101;-75
2023/05/07 19:16:16;;;;;;;8.83;5.37;;;16.80;99.90;;;;;;5076233;28;20756;-75
2023/05/07 19:18:42;;;;;;;9.63;5.10;;;16.80;99.90;;;;;;5075486;28;20283;-74
2023/05/07 19:21:08;;;;;;;9.57;5.20;;;16.80;99.90;;;;;;5075520;28;20301;-74
2023/05/07 19:23:40;;;;;;;6.55;5.20;;;16.80;99.90;;;;;;5077537;28;20053;-75
2023/05/07 19:26:09;;;;;;;7.28;4.75;;;16.80;99.90;;;;;;5096341;28;20036;-73
2023/05/07 19:28:38;;;;;;;11.75;7.53;;;16.70;99.90;;;;;;5079975;28;20025;-75
2023/05/07 19:31:04;;;;;;;13.32;6.10;;;16.60;99.90;;;;;;5086946;28;20044;-74
2023/05/07 19:33:30;;;;;;;7.75;4.38;;;16.70;99.90;;;;;;5066892;28;20021;-74
2023/05/07 19:35:59;;;;;;;7.13;4.68;;;16.60;99.90;;;;;;5064548;28;20029;-74
2023/05/07 19:38:26;;;;;;;4.97;4.13;;;16.60;99.90;;;;;;5057026;28;20048;-75
2023/05/07 19:40:53;;;;;;;6.40;4.72;;;16.50;99.90;;;;;;5056770;28;20017;-74
2023/05/07 19:43:19;;;;;;;6.60;4.65;;;16.60;99.90;;;;;;5057144;28;20032;-73
2023/05/07 19:45:44;;;;;;;8.77;4.78;;;16.50;99.90;;;;;;5076576;28;20472;-74
2023/05/07 19:48:12;;;;;;;5.53;4.30;;;16.50;99.90;;;;;;5077016;28;20089;-73
2023/05/07 19:50:38;;;;;;;8.07;4.60;;;16.40;99.90;;;;;;5076327;28;20492;-73
2023/05/07 19:53:04;;;;;;;13.13;4.87;;;16.40;99.90;;;;;;5075066;28;20032;-73
2023/05/07 19:55:29;;;;;;;6.00;4.95;;;16.40;99.90;;;;;;5094152;28;20024;-73
2023/05/07 19:57:55;;;;;;;7.85;4.82;;;16.30;99.90;;;;;;5094823;28;20028;-73
2023/05/07 20:00:20;;;;;;;9.77;5.40;;;16.40;99.90;;;;;;5094840;28;20122;-73
2023/05/07 20:02:47;;;;;;;8.65;5.00;;;16.40;99.90;;;;;;5096255;28;20020;-73
2023/05/07 20:05:13;;;;;;;7.72;4.82;;;16.40;99.90;;;;;;5094288;28;20085;-73
2023/05/07 20:07:40;;;;;;;7.95;5.68;;;16.40;99.90;;;;;;5095965;28;20095;-76
2023/05/07 20:10:06;;;;;;;9.77;5.10;;;16.40;99.90;;;;;;5095820;28;20028;-74
2023/05/07 20:12:31;;;;;;;8.25;5.00;;;16.40;99.90;;;;;;5096186;28;20016;-73
2023/05/07 20:14:57;;;;;;;7.45;5.63;;;16.40;99.90;;;;;;5094530;28;20077;-72
2023/05/07 20:17:22;;;;;;;8.65;6.43;;;16.50;99.90;;;;;;5094394;28;20077;-73
2023/05/07 20:19:48;;;;;;;6.77;5.60;;;16.50;99.90;;;;;;5094462;28;20123;-73
2023/05/07 20:22:14;;;;;;;9.60;5.93;;;16.50;99.90;;;;;;5095967;28;20341;-73
2023/05/07 20:24:39;;;;;;;5.30;4.43;;;16.40;99.90;;;;;;5097764;28;20032;-73
2023/05/07 20:27:05;;;;;;;7.45;5.90;;;16.50;99.90;;;;;;5101142;28;20020;-73
2023/05/07 20:29:32;;;;;;;9.60;6.75;;;16.50;99.90;;;;;;5100078;28;20476;-73
2023/05/07 20:31:58;;;;;;;11.95;6.18;;;16.50;99.90;;;;;;5101498;28;20058;-74
2023/05/07 20:34:23;;;;;;;8.63;7.00;;;16.50;99.90;;;;;;5099746;28;20452;-73
2023/05/07 20:36:49;;;;;;;9.77;6.95;;;16.50;99.90;;;;;;5100285;28;20036;-74
2023/05/07 20:39:14;;;;;;;8.20;6.82;;;16.50;99.90;;;;;;5096289;28;20036;-74
2023/05/07 20:41:42;;;;;;;9.15;6.70;;;16.60;99.90;;;;;;5094312;28;20016;-73
2023/05/07 20:44:08;;;;;;;7.55;6.63;;;16.60;99.90;;;;;;5095381;28;20016;-73
2023/05/07 20:46:35;;;;;;;9.43;6.90;;;16.60;99.90;;;;;;5095038;28;20035;-74
2023/05/07 20:49:01;;;;;;;11.27;6.22;;;16.60;99.90;;;;;;5093900;28;20433;-73
2023/05/07 20:51:26;;;;;;;11.40;6.68;;;16.50;99.90;;;;;;5093828;28;20024;-73
2023/05/07 20:53:52;;;;;;;9.40;6.82;;;16.50;99.90;;;;;;5095147;28;20039;-72
2023/05/07 20:56:17;;;;;;;9.50;7.17;;;16.50;99.90;;;;;;5094833;28;20036;-73
2023/05/07 20:58:43;;;;;;;8.68;6.35;;;16.50;99.90;;;;;;5093761;28;20667;-74
2023/05/07 21:01:08;;;;;;;10.45;7.22;;;16.50;99.90;;;;;;5095061;28;20081;-74
2023/05/07 21:03:34;;;;;;;9.00;6.68;;;16.50;99.90;;;;;;5092682;28;20020;-74
2023/05/07 21:06:00;;;;;;;9.80;7.10;;;16.60;99.90;;;;;;5093889;28;20031;-73
2023/05/07 21:08:26;;;;;;;17.52;6.60;;;16.60;99.90;;;;;;5093626;28;20024;-73
2023/05/07 21:10:52;;;;;;;7.97;6.30;;;16.60;99.90;;;;;;5093294;28;20476;-73
2023/05/07 21:13:18;;;;;;;11.40;6.65;;;16.60;99.90;;;;;;5093718;28;20051;-72
2023/05/07 21:15:44;;;;;;;9.48;7.03;;;16.60;99.90;;;;;;5094938;28;20028;-74
2023/05/07 21:18:10;;;;;;;9.43;7.40;;;16.70;99.90;;;;;;5093768;28;20020;-73
2023/05/07 21:20:36;;;;;;;;;;;16.60;99.90;;;;;;5093639;28;20035;-73
2023/05/07 21:23:02;;;;;;;8.88;6.40;;;16.60;99.90;;;;;;5094778;28;19904;-73
2023/05/07 21:25:28;;;;;;;;;;;16.70;99.90;;;;;;5094522;28;20031;-73
2023/05/07 21:27:53;;;;;;;9.98;6.75;;;16.70;99.90;;;;;;5093012;28;19908;-73
